Time;durP1;ratioP1;P1;durP2;ratioP2;P2;SDS_P1;SDS_P2;PMS_P1;PMS_P2;Temp;Humidity;BMP_temperature;BMP_pressure;BME280_temperature;BME280_humidity;BME280_pressure;Samples;Min_cycle;Max_cycle;Signal;HPM_P1;HPM_P2
2023/01/10 00:02:05;;;;;;;7.93;1.42;;;;;;;10.93;87.84;99608.25;5007395;28;20046;-80
2023/01/10 00:04:34;;;;;;;7.40;1.10;;;;;;;10.88;89.46;99606.47;5007404;28;20054;-78
2023/01/10 00:07:03;;;;;;;2.35;0.90;;;;;;;10.88;90.11;99605.59;5006113;28;20052;-80
2023/01/10 00:09:31;;;;;;;5.45;0.80;;;;;;;10.84;91.16;99612.47;5007877;28;20041;-81
2023/01/10 00:14:47;;;;;;;13.50;1.85;;;;;;;10.83;91.33;99620.22;5005537;28;20107;-81
2023/01/10 00:17:17;;;;;;;8.75;1.15;;;;;;;10.80;91.86;99622.78;5008040;28;20045;-83
2023/01/10 00:19:46;;;;;;;5.72;1.10;;;;;;;10.79;93.25;99618.44;5008150;28;20049;-81
2023/01/10 00:22:23;;;;;;;6.75;0.90;;;;;;;10.77;94.50;99633.09;5003036;28;20522;-81
2023/01/10 00:24:53;;;;;;;3.38;0.90;;;;;;;10.69;94.94;99631.28;5009063;28;20061;-80
2023/01/10 00:27:23;;;;;;;2.47;0.73;;;;;;;10.64;95.26;99635.53;5003618;28;20054;-80
2023/01/10 00:29:52;;;;;;;10.15;1.30;;;;;;;10.65;96.37;99638.97;5002592;28;20048;-83
2023/01/10 00:32:22;;;;;;;4.80;1.05;;;;;;;10.64;97.83;99647.59;5010377;28;20085;-79
2023/01/10 00:34:50;;;;;;;5.85;0.95;;;;;;;10.63;99.01;99646.75;5010624;28;20076;-81
2023/01/10 00:37:19;;;;;;;5.38;1.40;;;;;;;10.63;99.63;99644.16;5009977;28;20057;-81
2023/01/10 00:39:48;;;;;;;6.80;1.10;;;;;;;10.60;100.00;99641.50;5008724;28;20057;-81
2023/01/10 00:45:03;;;;;;;9.68;1.25;;;;;;;10.56;100.00;99647.53;5009669;28;20057;-80
2023/01/10 00:47:32;;;;;;;7.28;2.28;;;;;;;10.55;100.00;99653.53;5009925;28;20121;-81
2023/01/10 00:50:04;;;;;;;6.30;0.98;;;;;;;10.54;100.00;99653.53;5008841;28;20042;-82
2023/01/10 00:52:33;;;;;;;6.40;1.02;;;;;;;10.53;100.00;99655.22;5009231;28;20058;-82
2023/01/10 00:55:01;;;;;;;4.57;1.05;;;;;;;10.53;100.00;99663.00;5007833;28;20042;-81
2023/01/10 00:57:30;;;;;;;7.10;1.02;;;;;;;10.54;100.00;99664.75;5011000;28;20495;-81
2023/01/10 00:59:58;;;;;;;5.43;0.98;;;;;;;10.53;100.00;99664.72;5010716;28;20050;-81
2023/01/10 01:02:29;;;;;;;4.82;0.77;;;;;;;10.49;100.00;99661.25;5012461;28;20942;-79
2023/01/10 01:04:57;;;;;;;2.88;0.82;;;;;;;10.44;100.00;99660.28;5015029;28;20578;-80
2023/01/10 01:07:26;;;;;;;3.78;0.82;;;;;;;10.42;100.00;99656.81;5012154;28;20841;-83
2023/01/10 01:12:40;;;;;;;4.00;0.80;;;;;;;10.46;100.00;99656.00;5011266;28;20462;-82
2023/01/10 01:15:10;;;;;;;7.93;1.15;;;;;;;10.47;100.00;99662.94;5012221;28;20050;-79
2023/01/10 01:17:40;;;;;;;4.13;1.20;;;;;;;10.49;100.00;99663.84;5011741;28;20038;-76
2023/01/10 01:20:10;;;;;;;3.42;0.60;;;;;;;10.50;100.00;99670.72;5012022;28;20121;-81
2023/01/10 01:22:39;;;;;;;5.45;1.23;;;;;;;10.50;100.00;99675.91;5010922;28;20054;-82
2023/01/10 01:25:08;;;;;;;7.60;0.93;;;;;;;10.50;100.00;99675.91;5009481;28;20050;-80
2023/01/10 01:27:37;;;;;;;1.63;0.77;;;;;;;10.47;100.00;99688.81;5007455;28;20053;-77
2023/01/10 01:30:06;;;;;;;3.75;1.00;;;;;;;10.41;100.00;99696.47;5005171;28;20050;-78
2023/01/10 01:32:35;;;;;;;11.20;1.02;;;;;;;10.38;100.00;99693.84;5009459;28;20115;-80
2023/01/10 01:35:07;;;;;;;2.60;0.95;;;;;;;10.40;100.00;99690.44;5006848;28;20061;-78
2023/01/10 01:37:35;;;;;;;5.27;1.60;;;;;;;10.43;100.00;99695.63;5009097;28;20054;-76
2023/01/10 01:40:05;;;;;;;5.93;0.95;;;;;;;10.45;100.00;99688.78;5009255;28;20499;-78
2023/01/10 01:42:35;;;;;;;9.13;1.50;;;;;;;10.47;100.00;99681.03;5007410;28;20056;-77
2023/01/10 01:45:34;;;;;;;7.25;1.00;;;;;;;10.47;100.00;99670.69;5008401;28;20053;-77
2023/01/10 01:48:09;;;;;;;6.60;0.95;;;;;;;10.48;100.00;99682.78;5003916;28;20057;-75
2023/01/10 01:50:43;;;;;;;5.53;1.30;;;;;;;10.48;100.00;99677.59;5008814;28;20164;-75
2023/01/10 01:53:15;;;;;;;8.38;1.25;;;;;;;10.46;100.00;99674.13;5007104;28;20053;-77
2023/01/10 01:55:46;;;;;;;6.93;1.30;;;;;;;10.47;100.00;99670.69;5003821;28;20062;-80
2023/01/10 01:58:18;;;;;;;1.95;0.80;;;;;;;10.45;100.00;99665.50;5007680;28;20061;-78
2023/01/10 02:00:47;;;;;;;3.60;1.03;;;;;;;10.38;100.00;99673.16;5005320;28;20097;-79
2023/01/10 02:03:17;;;;;;;8.23;1.38;;;;;;;10.33;100.00;99664.47;5008397;28;20081;-78
2023/01/10 02:05:48;;;;;;;1.85;1.00;;;;;;;10.33;100.00;99679.97;5008352;28;20522;-80
2023/01/10 02:08:17;;;;;;;5.25;0.88;;;;;;;10.31;100.00;99679.09;5011975;28;20527;-80
2023/01/10 02:10:52;;;;;;;5.70;1.20;;;;;;;10.26;100.00;99686.75;5005384;28;20042;-79
2023/01/10 02:13:24;;;;;;;2.13;0.60;;;;;;;10.15;100.00;99673.69;5008357;28;20057;-77
2023/01/10 02:15:52;;;;;;;1.50;0.73;;;;;;;10.19;100.00;99680.66;5005830;28;20053;-76
2023/01/10 02:18:23;;;;;;;4.10;1.33;;;;;;;10.21;100.00;99686.69;5003599;28;20050;-76
2023/01/10 02:21:09;;;;;;;5.10;0.95;;;;;;;10.24;100.00;99693.63;5008024;28;20058;-78
2023/01/10 02:24:12;;;;;;;6.03;1.00;;;;;;;10.27;100.00;99699.69;5010816;28;20507;-79
2023/01/10 02:27:14;;;;;;;1.90;0.68;;;;;;;10.29;100.00;99697.19;5005749;28;20042;-79
2023/01/10 02:30:14;;;;;;;4.88;1.40;;;;;;;10.28;100.00;99700.56;4972182;28;20056;-74
2023/01/10 02:32:47;;;;;;;4.60;1.15;;;;;;;10.29;100.00;99712.69;5007102;28;20771;-75
2023/01/10 02:35:29;;;;;;;2.38;0.80;;;;;;;10.29;100.00;99704.94;5005522;28;20057;-75
2023/01/10 02:38:05;;;;;;;5.65;0.77;;;;;;;10.29;100.00;99707.53;5004350;28;20155;-75
2023/01/10 02:40:46;;;;;;;6.43;0.85;;;;;;;10.26;100.00;99712.59;5005712;28;20050;-76
2023/01/10 02:43:18;;;;;;;6.32;1.02;;;;;;;10.24;100.00;99698.81;5004971;28;20045;-76
2023/01/10 02:45:51;;;;;;;4.00;0.98;;;;;;;10.24;100.00;99704.84;5006416;28;20049;-74
2023/01/10 02:48:23;;;;;;;1.88;0.90;;;;;;;10.22;100.00;99706.53;5006183;28;20054;-74
2023/01/10 02:50:57;;;;;;;3.33;1.48;;;;;;;10.24;100.00;99704.84;5006781;28;20046;-74
2023/01/10 02:53:30;;;;;;;10.77;1.60;;;;;;;10.24;100.00;99704.84;5005739;28;20054;-73
2023/01/10 02:56:38;;;;;;;4.45;1.40;;;;;;;10.25;100.00;99710.88;5009596;28;20134;-73
2023/01/10 02:59:34;;;;;;;4.55;1.27;;;;;;;10.25;100.00;99701.41;4947634;28;20043;-73
2023/01/10 03:02:11;;;;;;;9.00;2.97;;;;;;;10.23;100.00;99703.09;5002017;28;20724;-74
2023/01/10 03:04:52;;;;;;;10.60;4.28;;;;;;;10.24;100.00;99711.72;5005967;28;20042;-73
2023/01/10 03:07:28;;;;;;;13.20;5.07;;;;;;;10.23;100.00;99713.44;5007539;28;20054;-74
2023/01/10 03:10:03;;;;;;;12.27;5.30;;;;;;;10.22;100.00;99721.19;5006447;28;20049;-75
2023/01/10 03:12:36;;;;;;;12.95;4.72;;;;;;;10.22;100.00;99722.03;5005571;28;20053;-74
2023/01/10 03:15:07;;;;;;;12.93;4.65;;;;;;;10.18;100.00;99719.41;5004830;28;20045;-75
2023/01/10 03:17:37;;;;;;;12.07;1.92;;;;;;;10.12;100.00;99714.13;5002809;28;20062;-75
2023/01/10 03:20:09;;;;;;;3.13;1.55;;;;;;;10.06;100.00;99714.91;5009821;28;20539;-77
2023/01/10 03:22:42;;;;;;;5.35;1.05;;;;;;;10.01;100.00;99708.78;5004743;28;20508;-78
2023/01/10 03:25:15;;;;;;;4.55;1.70;;;;;;;10.02;100.00;99702.78;5004344;28;20052;-77
2023/01/10 03:27:50;;;;;;;10.50;2.17;;;;;;;10.02;100.00;99707.97;5006388;28;20050;-78
2023/01/10 03:30:27;;;;;;;10.27;2.83;;;;;;;10.03;100.00;99709.69;5008261;28;20049;-78
2023/01/10 03:33:00;;;;;;;8.07;2.38;;;;;;;10.02;100.00;99713.13;5007209;28;20061;-77
2023/01/10 03:35:48;;;;;;;7.97;3.40;;;;;;;10.02;100.00;99716.56;5005195;28;20038;-76
2023/01/10 03:38:24;;;;;;;9.90;4.07;;;;;;;10.02;100.00;99713.13;4998615;28;20054;-78
2023/01/10 03:40:58;;;;;;;14.40;4.40;;;;;;;10.02;100.00;99707.97;5006761;28;20045;-76
2023/01/10 03:46:28;;;;;;;16.27;5.40;;;;;;;10.02;100.00;99723.47;5005457;28;20057;-78
2023/01/10 03:48:58;;;;;;;10.48;4.88;;;;;;;10.00;100.00;99719.97;5001832;28;20076;-75
2023/01/10 03:51:30;;;;;;;9.27;5.30;;;;;;;10.00;100.00;99710.50;5008404;28;20057;-74
2023/01/10 03:54:01;;;;;;;19.55;6.18;;;;;;;9.98;100.00;99716.50;5007739;28;20507;-77
2023/01/10 03:56:30;;;;;;;13.10;5.65;;;;;;;9.96;100.00;99719.06;5006979;28;20057;-77
2023/01/10 03:58:59;;;;;;;12.27;4.55;;;;;;;9.96;100.00;99718.19;5003373;28;20050;-77
2023/01/10 04:01:28;;;;;;;11.63;4.70;;;;;;;9.89;100.00;99714.63;5006575;28;20058;-75
2023/01/10 04:03:56;;;;;;;11.52;4.53;;;;;;;9.78;100.00;99711.91;5004005;28;20077;-78
2023/01/10 04:06:25;;;;;;;6.32;3.58;;;;;;;9.82;100.00;99718.84;5003656;28;20062;-80
2023/01/10 04:09:03;;;;;;;12.07;4.38;;;;;;;9.82;100.00;99736.06;5011707;28;20057;-77
2023/01/10 04:11:31;;;;;;;9.70;3.95;;;;;;;9.80;100.00;99728.31;5009882;28;20046;-78
2023/01/10 04:14:00;;;;;;;12.00;4.32;;;;;;;9.81;100.00;99732.63;5008396;28;20064;-77
2023/01/10 04:16:28;;;;;;;8.10;4.40;;;;;;;9.73;100.00;99738.50;5000653;28;20058;-77
2023/01/10 04:18:57;;;;;;;8.30;3.72;;;;;;;9.65;100.00;99747.00;5010125;28;20488;-77
2023/01/10 04:21:26;;;;;;;8.18;3.65;;;;;;;9.63;100.00;99751.25;5010385;28;20058;-78
2023/01/10 04:23:54;;;;;;;9.45;3.95;;;;;;;9.62;100.00;99779.63;5011214;28;20539;-82
2023/01/10 04:26:25;;;;;;;7.13;3.45;;;;;;;9.61;100.00;99755.53;5009874;28;20156;-77
2023/01/10 04:28:53;;;;;;;9.75;4.07;;;;;;;9.57;100.00;99770.94;5009489;28;20511;-77
2023/01/10 04:31:22;;;;;;;8.60;2.30;;;;;;;9.54;100.00;99760.56;5009844;28;20057;-77
2023/01/10 04:33:51;;;;;;;11.07;2.03;;;;;;;9.57;100.00;99766.63;5008818;28;20563;-78
2023/01/10 04:36:19;;;;;;;3.08;1.45;;;;;;;9.62;100.00;99775.38;5007190;28;20496;-80
2023/01/10 04:38:48;;;;;;;5.20;1.85;;;;;;;9.67;100.00;99766.78;5008057;28;20046;-76
2023/01/10 04:41:17;;;;;;;6.45;2.22;;;;;;;9.67;100.00;99765.09;5009924;28;20056;-79
2023/01/10 04:43:48;;;;;;;5.28;2.03;;;;;;;9.68;100.00;99769.41;5007874;28;20421;-75
2023/01/10 04:46:17;;;;;;;2.67;1.25;;;;;;;9.69;100.00;99762.53;5011282;28;20050;-77
2023/01/10 04:48:45;;;;;;;11.30;3.10;;;;;;;9.70;100.00;99767.72;5011146;28;20164;-77
2023/01/10 04:51:14;;;;;;;7.18;1.98;;;;;;;9.71;100.00;99774.66;5014146;28;20073;-78
2023/01/10 04:53:43;;;;;;;6.72;1.83;;;;;;;9.69;100.00;99778.94;5010855;28;20056;-77
2023/01/10 04:56:17;;;;;;;6.93;1.45;;;;;;;9.67;100.00;99785.78;5010189;28;20419;-78
2023/01/10 04:58:49;;;;;;;5.60;1.88;;;;;;;9.71;100.00;99778.94;5006911;28;20046;-77
2023/01/10 05:01:19;;;;;;;5.60;1.90;;;;;;;9.72;100.00;99791.88;5012363;28;20053;-77
2023/01/10 05:03:49;;;;;;;5.65;1.95;;;;;;;9.70;100.00;99803.91;5010388;28;20073;-76
2023/01/10 05:06:18;;;;;;;3.88;0.88;;;;;;;9.69;100.00;99807.34;5007821;28;20129;-75
2023/01/10 05:08:47;;;;;;;3.65;0.88;;;;;;;9.73;100.00;99806.53;5008070;28;20050;-77
2023/01/10 05:11:16;;;;;;;5.43;1.15;;;;;;;9.76;100.00;99818.66;5007539;28;20081;-76
2023/01/10 05:13:44;;;;;;;3.72;0.88;;;;;;;9.79;100.00;99816.13;5009492;28;20050;-74
2023/01/10 05:16:14;;;;;;;4.60;1.20;;;;;;;9.82;100.00;99809.25;5006919;28;20054;-79
2023/01/10 05:18:43;;;;;;;4.82;1.30;;;;;;;9.83;100.00;99805.00;5005223;28;20057;-78
2023/01/10 05:21:13;;;;;;;4.82;1.60;;;;;;;9.89;100.00;99819.72;5010634;28;20070;-79
2023/01/10 05:23:42;;;;;;;8.85;3.20;;;;;;;9.90;100.00;99818.91;5007816;28;20125;-77
2023/01/10 05:26:11;;;;;;;5.80;1.90;;;;;;;9.91;100.00;99818.03;5000002;28;20083;-76
2023/01/10 05:28:40;;;;;;;3.88;1.70;;;;;;;9.92;100.00;99825.81;5006575;28;20053;-75
2023/01/10 05:31:10;;;;;;;9.55;1.77;;;;;;;9.95;100.00;99820.69;5005671;28;20116;-73
2023/01/10 05:33:40;;;;;;;6.97;1.73;;;;;;;9.95;100.00;99814.66;5002869;28;20563;-72
2023/01/10 05:36:09;;;;;;;6.13;2.10;;;;;;;9.88;100.00;99815.41;5005752;28;20053;-73
2023/01/10 05:38:38;;;;;;;7.07;2.00;;;;;;;9.78;100.00;99828.16;5005743;28;20103;-73
2023/01/10 05:41:07;;;;;;;8.85;1.80;;;;;;;9.70;100.00;99821.13;5007790;28;20054;-73
2023/01/10 05:43:36;;;;;;;9.27;2.20;;;;;;;9.64;100.00;99819.28;5008071;28;20134;-72
2023/01/10 05:46:04;;;;;;;3.55;1.70;;;;;;;9.63;100.00;99809.81;5012183;28;20052;-72
2023/01/10 05:48:33;;;;;;;7.10;1.90;;;;;;;9.65;100.00;99802.94;5009090;28;20460;-72
2023/01/10 05:51:04;;;;;;;4.40;1.60;;;;;;;9.65;100.00;99796.06;5007374;28;20069;-72
2023/01/10 05:53:32;;;;;;;4.20;1.48;;;;;;;9.64;100.00;99804.69;5007738;28;20058;-71
2023/01/10 05:56:03;;;;;;;6.68;1.95;;;;;;;9.64;100.00;99798.63;5006450;28;20042;-72
2023/01/10 05:58:31;;;;;;;5.82;1.52;;;;;;;9.61;100.00;99794.25;5004855;28;20100;-72
2023/01/10 06:01:00;;;;;;;6.40;1.67;;;;;;;9.58;100.00;99798.53;5009225;28;20057;-72
2023/01/10 06:03:28;;;;;;;8.60;2.08;;;;;;;9.54;100.00;99791.56;4997534;28;20054;-72
2023/01/10 06:05:57;;;;;;;5.05;2.17;;;;;;;9.51;100.00;99791.50;5007555;28;20538;-72
2023/01/10 06:08:27;;;;;;;4.50;1.83;;;;;;;9.48;100.00;99794.03;5006978;28;20061;-74
2023/01/10 06:10:56;;;;;;;4.93;2.03;;;;;;;9.46;100.00;99800.84;5007030;28;20381;-74
2023/01/10 06:13:32;;;;;;;4.57;1.80;;;;;;;9.42;100.00;99793.06;5004450;28;20236;-76
2023/01/10 06:16:01;;;;;;;5.13;1.90;;;;;;;9.41;100.00;99806.84;5005637;28;20054;-74
2023/01/10 06:18:29;;;;;;;4.28;1.60;;;;;;;9.36;100.00;99813.59;5004291;28;20050;-75
2023/01/10 06:20:58;;;;;;;9.18;2.38;;;;;;;9.32;100.00;99811.81;5010406;28;20045;-76
2023/01/10 06:23:30;;;;;;;4.82;1.25;;;;;;;9.30;100.00;99826.41;5004880;28;20052;-76
2023/01/10 06:25:58;;;;;;;;;;;;;;;9.28;100.00;99834.94;5008416;28;20050;-75
2023/01/10 06:28:27;;;;;;;6.15;2.17;;;;;;;9.26;100.00;99842.66;5009631;28;20449;-74
2023/01/10 06:30:55;;;;;;;7.78;2.15;;;;;;;9.27;100.00;99843.53;5006841;28;20053;-77
2023/01/10 06:33:25;;;;;;;5.30;1.80;;;;;;;9.27;100.00;99843.53;5008143;28;20065;-77
2023/01/10 06:35:53;;;;;;;7.70;1.85;;;;;;;9.26;100.00;99842.66;5005683;28;20137;-74
2023/01/10 06:38:22;;;;;;;4.05;1.40;;;;;;;9.26;100.00;99845.25;5006959;28;20049;-76
2023/01/10 06:40:52;;;;;;;5.93;1.45;;;;;;;9.27;100.00;99844.41;5002450;28;20057;-74
2023/01/10 06:43:21;;;;;;;6.13;1.90;;;;;;;9.27;100.00;99859.88;5007113;28;20050;-75
2023/01/10 06:45:49;;;;;;;4.13;1.50;;;;;;;9.26;100.00;99858.16;5006778;28;20077;-74
2023/01/10 06:48:18;;;;;;;5.43;1.48;;;;;;;9.24;100.00;99844.34;5008862;28;20057;-73
2023/01/10 06:50:46;;;;;;;5.75;1.70;;;;;;;9.21;100.00;99840.00;5006360;28;20050;-74
2023/01/10 06:53:15;;;;;;;5.00;1.60;;;;;;;9.19;100.00;99841.66;5007243;28;20052;-74
2023/01/10 06:55:43;;;;;;;3.20;1.60;;;;;;;9.16;100.00;99841.63;5009613;28;20057;-74
2023/01/10 06:58:17;;;;;;;6.82;2.38;;;;;;;9.16;100.00;99856.22;5006521;28;20064;-73
2023/01/10 07:00:45;;;;;;;6.32;2.17;;;;;;;9.14;100.00;99860.47;5005443;28;20705;-74
2023/01/10 07:03:14;;;;;;;5.25;2.15;;;;;;;9.10;100.00;99850.94;4998998;28;20050;-73
2023/01/10 07:05:43;;;;;;;5.88;1.20;;;;;;;9.13;100.00;99866.47;5005968;28;20057;-74
2023/01/10 07:08:11;;;;;;;3.80;1.45;;;;;;;9.14;100.00;99868.22;5007289;28;20085;-73
2023/01/10 07:10:42;;;;;;;3.97;1.10;;;;;;;9.12;100.00;99872.50;5008387;28;20046;-73
2023/01/10 07:13:11;;;;;;;7.03;1.85;;;;;;;9.09;100.00;99867.25;5006549;28;20476;-74
2023/01/10 07:15:41;;;;;;;8.80;2.22;;;;;;;9.05;100.00;99868.91;5006027;28;20492;-74
2023/01/10 07:18:09;;;;;;;6.85;2.10;;;;;;;9.01;100.00;99867.09;5004319;28;20046;-73
2023/01/10 07:20:38;;;;;;;8.45;2.35;;;;;;;8.95;100.00;99862.66;5006130;28;20053;-73
2023/01/10 07:23:06;;;;;;;6.93;2.83;;;;;;;8.92;100.00;99861.75;5011250;28;20056;-74
2023/01/10 07:25:35;;;;;;;9.20;2.40;;;;;;;8.89;100.00;99861.69;5006521;28;20057;-74
2023/01/10 07:28:05;;;;;;;8.05;2.97;;;;;;;8.84;100.00;99853.81;5006414;28;20113;-74
2023/01/10 07:30:33;;;;;;;7.20;2.97;;;;;;;8.74;100.00;99857.03;5003856;28;20069;-74
2023/01/10 07:33:05;;;;;;;5.00;2.20;;;;;;;8.60;100.00;99849.00;5004229;28;20045;-74
2023/01/10 07:35:33;;;;;;;6.65;2.80;;;;;;;8.54;100.00;99857.47;5005677;28;20069;-74
2023/01/10 07:38:02;;;;;;;3.95;1.63;;;;;;;8.51;100.00;99854.81;5006065;28;20073;-74
2023/01/10 07:40:31;;;;;;;4.07;1.52;;;;;;;8.50;100.00;99858.22;4999080;28;20050;-73
2023/01/10 07:43:01;;;;;;;8.90;2.85;;;;;;;8.47;100.00;99863.28;5006877;28;20050;-72
2023/01/10 07:45:31;;;;;;;7.03;2.08;;;;;;;8.41;100.00;99855.44;5006937;28;20054;-72
2023/01/10 07:48:00;;;;;;;7.82;2.20;;;;;;;8.36;100.00;99852.72;5004784;28;20062;-71
2023/01/10 07:50:32;;;;;;;8.35;3.08;;;;;;;8.32;100.00;99848.31;4998525;28;20058;-72
2023/01/10 07:53:02;;;;;;;13.43;2.97;;;;;;;8.30;100.00;99846.53;5005022;28;20053;-72
2023/01/10 07:55:33;;;;;;;12.75;2.90;;;;;;;8.26;100.00;99840.44;5004908;28;20053;-72
2023/01/10 07:58:02;;;;;;;11.68;3.83;;;;;;;8.25;100.00;99840.41;5003776;28;20065;-72
2023/01/10 08:00:30;;;;;;;7.45;2.72;;;;;;;8.19;100.00;99823.94;5005916;28;20058;-72
2023/01/10 08:02:59;;;;;;;5.88;1.38;;;;;;;8.18;100.00;99829.09;5002468;28;20274;-74
2023/01/10 08:05:27;;;;;;;6.30;1.70;;;;;;;8.14;100.00;99833.28;5004703;28;20076;-72
2023/01/10 08:07:59;;;;;;;9.43;2.60;;;;;;;8.10;100.00;99831.44;5003186;28;20108;-73
2023/01/10 08:10:29;;;;;;;5.50;1.83;;;;;;;8.05;100.00;99825.31;5006074;28;20042;-73
2023/01/10 08:12:58;;;;;;;3.70;1.35;;;;;;;8.00;100.00;99821.78;5008825;28;20586;-73
2023/01/10 08:15:27;;;;;;;6.63;1.88;;;;;;;7.94;100.00;99816.44;5006426;28;20050;-73
2023/01/10 08:17:55;;;;;;;5.75;1.80;;;;;;;7.86;100.00;99816.28;5009217;28;20045;-72
2023/01/10 08:20:24;;;;;;;7.53;3.13;;;;;;;7.79;100.00;99816.94;5006861;28;20050;-72
2023/01/10 08:22:53;;;;;;;1.98;0.90;;;;;;;7.75;100.00;99808.25;5002001;28;20054;-73
2023/01/10 08:25:23;;;;;;;3.72;0.90;;;;;;;7.76;100.00;99806.56;5002109;28;20057;-72
2023/01/10 08:27:51;;;;;;;5.45;1.42;;;;;;;7.76;100.00;99803.97;5005412;28;20050;-72
2023/01/10 08:30:20;;;;;;;2.22;0.88;;;;;;;7.79;100.00;99803.19;5006763;28;20061;-71
2023/01/10 08:32:49;;;;;;;4.32;1.85;;;;;;;7.81;100.00;99798.94;5004802;28;20050;-72
2023/01/10 08:35:18;;;;;;;6.90;2.33;;;;;;;7.84;100.00;99796.47;5005168;28;20137;-73
2023/01/10 08:37:47;;;;;;;7.47;1.27;;;;;;;7.86;100.00;99795.66;5005449;28;20054;-73
2023/01/10 08:40:16;;;;;;;5.85;1.00;;;;;;;7.88;100.00;99787.97;5008986;28;20054;-72
2023/01/10 08:42:46;;;;;;;3.08;0.70;;;;;;;7.89;100.00;99789.72;5006080;28;20485;-73
2023/01/10 08:45:14;;;;;;;5.10;0.95;;;;;;;7.92;100.00;99792.34;5008090;28;20049;-73
2023/01/10 08:47:43;;;;;;;7.65;1.42;;;;;;;7.93;100.00;99787.25;5005224;28;20041;-72
2023/01/10 08:50:12;;;;;;;5.43;1.05;;;;;;;7.94;100.00;99782.97;5003354;28;20054;-72
2023/01/10 08:52:41;;;;;;;3.97;1.10;;;;;;;7.95;100.00;99775.28;5009919;28;20050;-73
2023/01/10 08:55:10;;;;;;;2.67;0.82;;;;;;;7.97;100.00;99773.63;5008934;28;20202;-72
2023/01/10 08:57:38;;;;;;;2.88;0.88;;;;;;;7.99;100.00;99773.63;5010664;28;20109;-73
2023/01/10 09:00:10;;;;;;;5.30;1.98;;;;;;;8.00;100.00;99765.09;5006393;28;20514;-73
2023/01/10 09:02:40;;;;;;;2.30;0.98;;;;;;;8.02;100.00;99773.72;5008692;28;20510;-72
2023/01/10 09:05:10;;;;;;;4.15;1.17;;;;;;;8.03;100.00;99767.72;5006280;28;20518;-73
2023/01/10 09:07:40;;;;;;;5.68;1.05;;;;;;;8.05;100.00;99760.91;5006718;28;20517;-73
2023/01/10 09:10:09;;;;;;;3.85;1.00;;;;;;;8.05;100.00;99758.34;5006691;28;20061;-73
2023/01/10 09:12:58;;;;;;;3.10;1.05;;;;;;;8.05;100.00;99755.75;5009169;28;20049;-72
2023/01/10 09:15:30;;;;;;;5.22;1.20;;;;;;;8.05;100.00;99765.19;5004850;28;20072;-72
2023/01/10 09:18:00;;;;;;;2.58;1.42;;;;;;;8.03;100.00;99757.44;5007689;28;20128;-72
2023/01/10 09:20:30;;;;;;;5.85;1.10;;;;;;;8.02;100.00;99760.84;5008427;28;20058;-73
2023/01/10 09:22:59;;;;;;;4.10;1.67;;;;;;;8.01;100.00;99751.38;5009779;28;20068;-73
2023/01/10 09:25:28;;;;;;;2.60;0.85;;;;;;;7.99;100.00;99755.59;5009473;28;20072;-73
2023/01/10 09:28:00;;;;;;;4.35;1.15;;;;;;;7.96;100.00;99750.38;5008693;28;20054;-73
2023/01/10 09:30:31;;;;;;;3.17;0.80;;;;;;;7.93;100.00;99751.19;5008936;28;20592;-72
2023/01/10 09:33:00;;;;;;;5.50;1.48;;;;;;;7.90;100.00;99753.72;5006508;28;20068;-72
2023/01/10 09:35:29;;;;;;;4.38;0.80;;;;;;;7.91;100.00;99750.28;5009328;28;20133;-72
2023/01/10 09:38:00;;;;;;;3.28;1.17;;;;;;;7.92;100.00;99753.72;5012070;28;20046;-73
2023/01/10 09:40:39;;;;;;;2.67;0.93;;;;;;;7.93;100.00;99758.06;5009181;28;20065;-72
2023/01/10 09:43:16;;;;;;;2.65;1.10;;;;;;;7.93;100.00;99758.91;5009085;28;20049;-73
2023/01/10 09:45:56;;;;;;;2.67;1.38;;;;;;;7.93;100.00;99752.91;5008359;28;20046;-72
2023/01/10 09:48:31;;;;;;;5.30;1.58;;;;;;;7.92;100.00;99748.56;5006649;28;20058;-72
2023/01/10 09:51:17;;;;;;;3.50;1.30;;;;;;;7.92;100.00;99746.00;5012639;28;20054;-72
2023/01/10 09:53:47;;;;;;;4.30;1.33;;;;;;;7.93;100.00;99742.59;5008850;28;20042;-73
2023/01/10 09:56:18;;;;;;;4.10;0.95;;;;;;;7.91;100.00;99737.41;5010710;28;20054;-73
2023/01/10 09:58:48;;;;;;;4.75;1.02;;;;;;;7.90;100.00;99740.81;5010586;28;20061;-73
2023/01/10 10:01:22;;;;;;;4.90;1.30;;;;;;;7.89;100.00;99733.06;5010033;28;20671;-72
2023/01/10 10:03:59;;;;;;;4.70;1.20;;;;;;;7.90;100.00;99739.94;5008795;28;20044;-73
2023/01/10 10:06:28;;;;;;;2.67;1.35;;;;;;;7.89;100.00;99735.63;5007595;28;20137;-72
2023/01/10 10:08:58;;;;;;;3.38;1.02;;;;;;;7.88;100.00;99742.50;5010369;28;20057;-72
2023/01/10 10:11:44;;;;;;;2.75;0.90;;;;;;;7.88;100.00;99749.31;5004410;28;20049;-72
2023/01/10 10:14:30;;;;;;;6.60;3.00;;;;;;;7.85;100.00;99744.09;5009585;28;20053;-72
2023/01/10 10:17:12;;;;;;;3.25;1.30;;;;;;;7.84;100.00;99742.38;5008963;28;20042;-72
2023/01/10 10:20:01;;;;;;;3.85;0.93;;;;;;;7.81;100.00;99744.88;5001835;28;20966;-73
2023/01/10 10:22:41;;;;;;;2.67;1.00;;;;;;;7.75;100.00;99740.44;5000970;28;21459;-72
2023/01/10 10:25:21;;;;;;;6.15;1.50;;;;;;;7.70;100.00;99745.47;5007762;28;20061;-72
2023/01/10 10:28:08;;;;;;;9.43;1.55;;;;;;;7.64;100.00;99752.19;5006590;28;20109;-72
2023/01/10 10:30:51;;;;;;;3.70;1.85;;;;;;;7.53;100.00;99745.03;5005724;28;20046;-72
2023/01/10 10:33:40;;;;;;;5.05;1.45;;;;;;;7.46;100.00;99747.44;5005188;28;20053;-72
2023/01/10 10:36:14;;;;;;;7.97;1.27;;;;;;;7.41;100.00;99746.44;5007789;28;20042;-72
2023/01/10 10:38:47;;;;;;;4.80;0.95;;;;;;;7.36;100.00;99748.03;5009348;28;20041;-73
2023/01/10 10:41:24;;;;;;;3.90;1.25;;;;;;;7.31;100.00;99740.19;5008994;28;20050;-72
2023/01/10 10:43:55;;;;;;;2.50;0.82;;;;;;;7.25;100.00;99737.44;5007360;28;20494;-73
2023/01/10 10:46:23;;;;;;;2.05;0.73;;;;;;;7.19;100.00;99730.44;5006732;28;20132;-72
2023/01/10 10:48:59;;;;;;;4.00;0.90;;;;;;;7.12;100.00;99715.66;5006196;28;20492;-73
2023/01/10 10:51:34;;;;;;;3.70;1.23;;;;;;;7.07;100.00;99722.41;5006273;28;20061;-73
2023/01/10 10:54:05;;;;;;;4.68;1.23;;;;;;;7.02;100.00;99723.97;5006998;28;20439;-73
2023/01/10 10:56:34;;;;;;;4.80;1.40;;;;;;;6.94;100.00;99716.06;5000531;28;20053;-73
2023/01/10 10:59:02;;;;;;;3.92;1.90;;;;;;;6.90;100.00;99716.81;5007301;28;20203;-72
2023/01/10 11:01:31;;;;;;;2.50;0.88;;;;;;;6.85;100.00;99716.69;5005362;28;20487;-73
2023/01/10 11:04:06;;;;;;;1.67;0.80;;;;;;;6.79;100.00;99711.34;5006909;28;20052;-73
2023/01/10 11:06:39;;;;;;;5.47;2.08;;;;;;;6.76;100.00;99698.44;5007961;28;20927;-73
2023/01/10 11:09:09;;;;;;;2.30;0.50;;;;;;;6.71;100.00;99702.53;5006369;28;20057;-72
2023/01/10 11:11:41;;;;;;;2.30;0.80;;;;;;;6.70;100.00;99686.25;5007720;28;20130;-72
2023/01/10 11:14:10;;;;;;;;;;;;;;;6.73;100.00;99682.91;5004845;28;20052;-72
2023/01/10 11:16:40;;;;;;;1.00;0.63;;;;;;;6.77;100.00;99666.72;5008269;28;19939;-72
2023/01/10 11:19:24;;;;;;;2.17;1.02;;;;;;;6.82;100.00;99665.16;5002401;28;20696;-73
2023/01/10 11:21:56;;;;;;;3.58;0.68;;;;;;;6.87;100.00;99655.88;5007307;28;20093;-73
2023/01/10 11:24:31;;;;;;;2.38;0.80;;;;;;;6.91;100.00;99655.09;5008233;28;20046;-72
2023/01/10 11:27:02;;;;;;;2.58;1.00;;;;;;;6.96;100.00;99646.66;5006033;28;20075;-72
2023/01/10 11:29:38;;;;;;;3.83;1.00;;;;;;;6.99;100.00;99650.19;5007953;28;20057;-73
2023/01/10 11:32:14;;;;;;;6.10;1.05;;;;;;;7.01;100.00;99651.09;5006315;28;20116;-73
2023/01/10 11:34:52;;;;;;;2.92;0.82;;;;;;;7.06;100.00;99653.78;5007204;28;20136;-73
2023/01/10 11:37:24;;;;;;;1.83;0.90;;;;;;;7.08;100.00;99652.13;5007768;28;20069;-73
2023/01/10 11:40:15;;;;;;;4.68;1.23;;;;;;;7.10;100.00;99642.72;5009029;28;20553;-73
2023/01/10 11:42:44;;;;;;;3.85;0.70;;;;;;;7.13;100.00;99651.41;4997969;28;20049;-73
2023/01/10 11:45:31;;;;;;;2.20;1.10;;;;;;;7.14;100.00;99644.56;5007720;28;20053;-73
2023/01/10 11:48:08;;;;;;;3.60;1.08;;;;;;;7.13;100.00;99647.97;5004970;28;20042;-72
2023/01/10 11:50:41;;;;;;;5.38;0.82;;;;;;;7.12;100.00;99646.22;5002827;28;20122;-72
2023/01/10 11:53:35;;;;;;;2.08;0.38;;;;;;;7.11;100.00;99634.19;5005925;28;20058;-72
2023/01/10 11:56:05;;;;;;;2.00;0.45;;;;;;;7.10;100.00;99640.16;5006086;28;20104;-71
2023/01/10 11:58:37;;;;;;;1.05;0.40;;;;;;;7.02;100.00;99619.38;5005681;28;20057;-72
2023/01/10 12:01:06;;;;;;;1.02;0.52;;;;;;;7.08;100.00;99626.41;5006131;28;20065;-73
2023/01/10 12:03:39;;;;;;;1.05;0.57;;;;;;;7.07;100.00;99625.50;5006669;28;20061;-73
2023/01/10 12:06:16;;;;;;;0.85;0.40;;;;;;;7.08;99.66;99634.13;5006161;28;20079;-73